Time;durP1;ratioP1;P1;durP2;ratioP2;P2;SDS_P1;SDS_P2;PMS_P1;PMS_P2;Temp;Humidity;BMP_temperature;BMP_pressure;BME280_temperature;BME280_humidity;BME280_pressure;Samples;Min_cycle;Max_cycle;Signal;HPM_P1;HPM_P2
2024/02/19 00:00:24;;;;;;;;;;;8.80;99.90;;;;;;4998466;28;20004;-75
2024/02/19 00:02:50;;;;;;;;;;;8.80;99.90;;;;;;4963349;28;20440;-74
2024/02/19 00:05:16;;;;;;;;;;;8.70;99.90;;;;;;4955933;28;19922;-74
2024/02/19 00:07:42;;;;;;;;;;;8.80;99.90;;;;;;4979814;28;19975;-74
2024/02/19 00:10:08;;;;;;;;;;;8.80;99.90;;;;;;4978869;28;20354;-74
2024/02/19 00:12:34;;;;;;;;;;;8.80;99.90;;;;;;4970874;28;20322;-75
2024/02/19 00:14:59;;;;;;;;;;;8.80;99.90;;;;;;4980092;28;19913;-74
2024/02/19 00:17:25;;;;;;;;;;;8.70;99.90;;;;;;4976160;28;19914;-74
2024/02/19 00:19:51;;;;;;;;;;;8.80;99.90;;;;;;4975958;28;20250;-74
2024/02/19 00:22:17;;;;;;;;;;;8.70;99.90;;;;;;4976472;28;19917;-74
2024/02/19 00:24:46;;;;;;;;;;;8.70;99.90;;;;;;4968298;28;19929;-74
2024/02/19 00:27:11;;;;;;;;;;;8.70;99.90;;;;;;4957763;28;20052;-74
2024/02/19 00:29:37;;;;;;;;;;;8.60;99.90;;;;;;4984150;28;20049;-74
2024/02/19 00:32:04;;;;;;;;;;;8.60;99.90;;;;;;4976404;28;20445;-74
2024/02/19 00:34:30;;;;;;;;;;;8.60;99.90;;;;;;4994649;28;19951;-75
2024/02/19 00:36:55;;;;;;;;;;;8.60;99.90;;;;;;4959016;28;19918;-75
2024/02/19 00:39:21;;;;;;;;;;;8.60;99.90;;;;;;4982437;28;19914;-75
2024/02/19 00:41:47;;;;;;;;;;;8.60;99.90;;;;;;4979129;28;19925;-75
2024/02/19 00:44:14;;;;;;;;;;;8.50;99.90;;;;;;4976232;28;19917;-75
2024/02/19 00:46:41;;;;;;;;;;;8.50;99.90;;;;;;5000510;28;20451;-75
2024/02/19 00:49:07;;;;;;;;;;;8.50;99.90;;;;;;4982504;28;19918;-75
2024/02/19 00:51:36;;;;;;;;;;;8.50;99.90;;;;;;4982330;28;19922;-75
2024/02/19 00:54:02;;;;;;;;;;;8.50;99.90;;;;;;4997876;28;19925;-74
2024/02/19 00:56:27;;;;;;;;;;;8.50;99.90;;;;;;4996839;28;19917;-74
2024/02/19 00:58:53;;;;;;;;;;;8.50;99.90;;;;;;4965678;28;20329;-73
2024/02/19 01:01:19;;;;;;;;;;;8.50;99.90;;;;;;4960952;28;19914;-74
2024/02/19 01:03:44;;;;;;;;;;;8.50;99.90;;;;;;4982892;28;20000;-74
2024/02/19 01:06:11;;;;;;;;;;;8.50;99.90;;;;;;4971905;28;19937;-74
2024/02/19 01:08:36;;;;;;;;;;;8.40;99.90;;;;;;4981798;28;19945;-74
2024/02/19 01:11:02;;;;;;;;;;;8.40;99.90;;;;;;4980032;28;19951;-73
2024/02/19 01:13:28;;;;;;;;;;;8.30;99.90;;;;;;4997885;28;19928;-74
2024/02/19 01:15:53;;;;;;;;;;;8.30;99.90;;;;;;5014680;28;19924;-74
2024/02/19 01:18:19;;;;;;;;;;;8.30;99.90;;;;;;4983873;28;19953;-74
2024/02/19 01:20:45;;;;;;;;;;;8.30;99.90;;;;;;4978284;28;19922;-75
2024/02/19 01:23:10;;;;;;;;;;;8.20;99.90;;;;;;4981555;28;19956;-74
2024/02/19 01:25:36;;;;;;;;;;;8.20;99.90;;;;;;4991112;28;19921;-74
2024/02/19 01:28:02;;;;;;;;;;;8.20;99.90;;;;;;4955954;28;19917;-74
2024/02/19 01:30:28;;;;;;;;;;;8.20;99.90;;;;;;4965967;28;20000;-74
2024/02/19 01:32:54;;;;;;;;;;;8.20;99.90;;;;;;4952619;28;19965;-75
2024/02/19 01:35:19;;;;;;;;;;;8.20;99.90;;;;;;4948664;28;19994;-74
2024/02/19 01:37:46;;;;;;;;;;;8.20;99.90;;;;;;4977460;28;20382;-74
2024/02/19 01:40:12;;;;;;;;;;;8.10;99.90;;;;;;4973496;28;19922;-74
2024/02/19 01:42:38;;;;;;;;;;;8.10;99.90;;;;;;4966411;28;20437;-74
2024/02/19 01:45:05;;;;;;;;;;;8.10;99.90;;;;;;4978926;28;19922;-74
2024/02/19 01:47:31;;;;;;;;;;;8.10;99.90;;;;;;4955818;28;19949;-74
2024/02/19 01:49:56;;;;;;;;;;;8.10;99.90;;;;;;4950514;28;19949;-74
2024/02/19 01:52:24;;;;;;;;;;;8.00;99.90;;;;;;4955880;28;20022;-74
2024/02/19 01:54:50;;;;;;;;;;;8.00;99.90;;;;;;4969944;28;20024;-74
2024/02/19 01:57:15;;;;;;;;;;;8.00;99.90;;;;;;4969462;28;20338;-74
2024/02/19 01:59:41;;;;;;;;;;;8.00;99.90;;;;;;4959446;28;19914;-74
2024/02/19 02:02:06;;;;;;;;;;;8.00;99.90;;;;;;4973906;28;19917;-73
2024/02/19 02:04:32;;;;;;;;;;;8.00;99.90;;;;;;4980624;28;20420;-74
2024/02/19 02:06:58;;;;;;;;;;;8.00;99.90;;;;;;4978211;28;19961;-74
2024/02/19 02:09:23;;;;;;;;;;;8.00;99.90;;;;;;4969690;28;19922;-74
2024/02/19 02:11:49;;;;;;;;;;;8.00;99.90;;;;;;4979030;28;19917;-74
2024/02/19 02:14:15;;;;;;;;;;;8.00;99.90;;;;;;4957096;28;19914;-74
2024/02/19 02:16:40;;;;;;;;;;;8.00;99.90;;;;;;4960040;28;20323;-74
2024/02/19 02:19:06;;;;;;;;;;;8.00;99.90;;;;;;4984153;28;19917;-74
2024/02/19 02:21:33;;;;;;;;;;;8.10;99.90;;;;;;4996907;28;19924;-74
2024/02/19 02:23:59;;;;;;;;;;;8.00;99.90;;;;;;4965500;28;19913;-74
2024/02/19 02:26:25;;;;;;;;;;;8.10;99.90;;;;;;4998242;28;19918;-74
2024/02/19 02:28:51;;;;;;;;;;;8.10;99.90;;;;;;4978157;28;19914;-74
2024/02/19 02:31:17;;;;;;;;;;;8.10;99.90;;;;;;4995124;28;19918;-74
2024/02/19 02:33:42;;;;;;;;;;;8.00;99.90;;;;;;4978949;28;19953;-74
2024/02/19 02:36:13;;;;;;;;;;;8.00;99.90;;;;;;4991926;28;19914;-74
2024/02/19 02:38:38;;;;;;;;;;;8.00;99.90;;;;;;4981410;28;19944;-74
2024/02/19 02:41:04;;;;;;;;;;;8.00;99.90;;;;;;4982750;28;19968;-74
2024/02/19 02:43:30;;;;;;;;;;;8.00;99.90;;;;;;4968238;28;19914;-74
2024/02/19 02:45:55;;;;;;;;;;;8.00;99.90;;;;;;4998235;28;19917;-75
2024/02/19 02:48:21;;;;;;;;;;;8.00;99.90;;;;;;4981638;28;19921;-74
2024/02/19 02:50:47;;;;;;;;;;;8.00;99.90;;;;;;4985151;28;20251;-74
2024/02/19 02:53:12;;;;;;;;;;;7.90;99.90;;;;;;4967687;28;19925;-74
2024/02/19 02:55:38;;;;;;;;;;;7.90;99.90;;;;;;4979572;28;19917;-74
2024/02/19 02:58:04;;;;;;;;;;;7.90;99.90;;;;;;4951272;28;19921;-74
2024/02/19 03:00:30;;;;;;;;;;;7.90;99.90;;;;;;4960336;28;19913;-75
2024/02/19 03:02:55;;;;;;;;;;;7.80;99.90;;;;;;4965561;28;20008;-74
2024/02/19 03:05:21;;;;;;;;;;;7.80;99.90;;;;;;4979145;28;20009;-74
2024/02/19 03:07:47;;;;;;;;;;;7.70;99.90;;;;;;4963369;28;19921;-74
2024/02/19 03:10:12;;;;;;;;;;;7.70;99.90;;;;;;4981944;28;20536;-74
2024/02/19 03:12:38;;;;;;;;;;;7.70;99.90;;;;;;5009697;28;19920;-74
2024/02/19 03:15:04;;;;;;;;;;;7.60;99.90;;;;;;4982102;28;19920;-74
2024/02/19 03:17:29;;;;;;;;;;;7.70;99.90;;;;;;4965888;28;20029;-74
2024/02/19 03:19:58;;;;;;;;;;;7.50;99.90;;;;;;4968005;28;19972;-74
2024/02/19 03:22:25;;;;;;;;;;;7.50;99.90;;;;;;5011741;28;20345;-74
2024/02/19 03:24:51;;;;;;;;;;;7.50;99.90;;;;;;4981307;28;19921;-74
2024/02/19 03:27:16;;;;;;;;;;;7.50;99.90;;;;;;4968884;28;20008;-74
2024/02/19 03:29:42;;;;;;;;;;;7.40;99.90;;;;;;4967964;28;19924;-74
2024/02/19 03:32:08;;;;;;;;;;;7.40;99.90;;;;;;5001548;28;19924;-74
2024/02/19 03:34:33;;;;;;;;;;;7.40;99.90;;;;;;4991462;28;19938;-74
2024/02/19 03:36:59;;;;;;;;;;;7.40;99.90;;;;;;4981416;28;19972;-75
2024/02/19 03:39:25;;;;;;;;;;;7.30;99.90;;;;;;4997998;28;19999;-74
2024/02/19 03:41:51;;;;;;;;;;;7.30;99.90;;;;;;5010828;28;19921;-74
2024/02/19 03:44:16;;;;;;;;;;;7.30;99.90;;;;;;4983063;28;20567;-74
2024/02/19 03:46:42;;;;;;;;;;;7.30;99.90;;;;;;4998175;28;19932;-74
2024/02/19 03:49:08;;;;;;;;;;;7.30;99.90;;;;;;4990534;28;19913;-74
2024/02/19 03:51:33;;;;;;;;;;;7.30;99.90;;;;;;4964300;28;19922;-78
2024/02/19 03:53:59;;;;;;;;;;;7.30;99.90;;;;;;4980086;28;19918;-78
2024/02/19 03:56:25;;;;;;;;;;;7.30;99.90;;;;;;4970163;28;19920;-79
2024/02/19 03:58:50;;;;;;;;;;;7.20;99.90;;;;;;4975845;28;20033;-78
2024/02/19 04:01:17;;;;;;;;;;;7.20;99.90;;;;;;4965293;28;19918;-79
2024/02/19 04:03:42;;;;;;;;;;;7.20;99.90;;;;;;4963151;28;19922;-79
2024/02/19 04:06:08;;;;;;;;;;;7.20;99.90;;;;;;4974070;28;19925;-78
2024/02/19 04:08:34;;;;;;;;;;;7.20;99.90;;;;;;4981621;28;19921;-78
2024/02/19 04:10:59;;;;;;;;;;;7.20;99.90;;;;;;4980351;28;19980;-77
2024/02/19 04:13:25;;;;;;;;;;;7.20;99.90;;;;;;4948278;28;19917;-78
2024/02/19 04:15:51;;;;;;;;;;;7.20;99.90;;;;;;4986003;28;19945;-77
2024/02/19 04:18:16;;;;;;;;;;;7.20;99.90;;;;;;4966682;28;19929;-78
2024/02/19 04:20:42;;;;;;;;;;;7.20;99.90;;;;;;4998976;28;19927;-77
2024/02/19 04:23:08;;;;;;;;;;;7.20;99.90;;;;;;5001714;28;20411;-79
2024/02/19 04:25:34;;;;;;;;;;;7.20;99.90;;;;;;4965200;28;19928;-77
2024/02/19 04:28:00;;;;;;;;;;;7.30;99.90;;;;;;4983537;28;19913;-78
2024/02/19 04:30:25;;;;;;;;;;;7.30;99.90;;;;;;4996514;28;20324;-77
2024/02/19 04:32:51;;;;;;;;;;;7.30;99.90;;;;;;4979062;28;19957;-78
2024/02/19 04:35:18;;;;;;;;;;;7.30;99.90;;;;;;4972393;28;19921;-80
2024/02/19 04:37:44;;;;;;;;;;;7.20;99.90;;;;;;4977769;28;19929;-78
2024/02/19 04:40:12;;;;;;;;;;;7.20;99.90;;;;;;5009834;28;19917;-78
2024/02/19 04:42:37;;;;;;;;;;;7.10;99.90;;;;;;4982994;28;19913;-79
2024/02/19 04:45:03;;;;;;;;;;;7.20;99.90;;;;;;4983416;28;19918;-78
2024/02/19 04:47:29;;;;;;;;;;;7.10;99.90;;;;;;4998096;28;19914;-78
2024/02/19 04:49:55;;;;;;;;;;;7.10;99.90;;;;;;4975528;28;20517;-78
2024/02/19 04:52:20;;;;;;;;;;;7.10;99.90;;;;;;4948489;28;19931;-79
2024/02/19 04:54:46;;;;;;;;;;;7.00;99.90;;;;;;4959317;28;19992;-79
2024/02/19 04:57:12;;;;;;;;;;;7.00;99.90;;;;;;4960862;28;19918;-77
2024/02/19 04:59:41;;;;;;;;;;;7.00;99.90;;;;;;4973233;28;19918;-79
2024/02/19 05:02:06;;;;;;;;;;;6.90;99.90;;;;;;4957929;28;19924;-79
2024/02/19 05:04:32;;;;;;;;;;;6.90;99.90;;;;;;4978881;28;19922;-80
2024/02/19 05:06:58;;;;;;;;;;;6.90;99.90;;;;;;4969111;28;20092;-78
2024/02/19 05:09:26;;;;;;;;;;;6.90;99.90;;;;;;4936311;28;19914;-78
2024/02/19 05:11:52;;;;;;;;;;;6.90;99.90;;;;;;4979557;28;19914;-79
2024/02/19 05:14:17;;;;;;;;;;;6.90;99.90;;;;;;4963263;28;19944;-78
2024/02/19 05:16:44;;;;;;;;;;;6.90;99.90;;;;;;4967376;28;20361;-78
2024/02/19 05:19:09;;;;;;;;;;;6.80;99.90;;;;;;4946862;28;19917;-78
2024/02/19 05:21:38;;;;;;;;;;;6.80;99.90;;;;;;4963250;28;19924;-78
2024/02/19 05:24:04;;;;;;;;;;;6.80;99.90;;;;;;4974600;28;19960;-79
2024/02/19 05:26:30;;;;;;;;;;;6.90;99.90;;;;;;4974981;28;19969;-78
2024/02/19 05:28:55;;;;;;;;;;;6.80;99.90;;;;;;4962143;28;20433;-78
2024/02/19 05:31:51;;;;;;;;;;;6.90;99.90;;;;;;4946780;28;19922;-79
2024/02/19 05:34:17;;;;;;;;;;;6.90;99.90;;;;;;4972137;28;19918;-79
2024/02/19 05:36:42;;;;;;;;;;;6.80;99.90;;;;;;4944250;28;20232;-78
2024/02/19 05:39:10;;;;;;;;;;;6.80;99.90;;;;;;4961137;28;19968;-79
2024/02/19 05:41:36;;;;;;;;;;;6.90;99.90;;;;;;4947207;28;20446;-78
2024/02/19 05:44:02;;;;;;;;;;;6.90;99.90;;;;;;4959743;28;19925;-79
2024/02/19 05:46:29;;;;;;;;;;;6.90;99.90;;;;;;4929848;28;19917;-78
2024/02/19 05:48:55;;;;;;;;;;;6.90;99.90;;;;;;4958942;28;19918;-79
2024/02/19 05:51:22;;;;;;;;;;;6.90;99.90;;;;;;4939947;28;19922;-78
2024/02/19 05:53:49;;;;;;;;;;;7.00;99.90;;;;;;4972288;28;19929;-78
2024/02/19 05:56:14;;;;;;;;;;;6.90;99.90;;;;;;4961008;28;19940;-80
2024/02/19 05:58:40;;;;;;;;;;;6.90;99.90;;;;;;4971131;28;19914;-78
2024/02/19 06:01:06;;;;;;;;;;;7.00;99.90;;;;;;4993927;28;20721;-78
2024/02/19 06:03:33;;;;;;;;;;;6.90;99.90;;;;;;4961756;28;19921;-79
2024/02/19 06:05:58;;;;;;;;;;;6.90;99.90;;;;;;4996544;28;20580;-79
2024/02/19 06:08:27;;;;;;;;;;;6.90;99.90;;;;;;4996325;28;19949;-79
2024/02/19 06:10:52;;;;;;;;;;;6.90;99.90;;;;;;4995817;28;20489;-79
2024/02/19 06:13:18;;;;;;;;;;;6.90;99.90;;;;;;4995246;28;19921;-80
2024/02/19 06:15:44;;;;;;;;;;;6.90;99.90;;;;;;4977937;28;19949;-78
2024/02/19 06:18:10;;;;;;;;;;;7.00;99.90;;;;;;4978089;28;19928;-79
2024/02/19 06:20:36;;;;;;;;;;;7.00;99.90;;;;;;4962681;28;19953;-79
2024/02/19 06:23:03;;;;;;;;;;;7.00;99.90;;;;;;4994972;28;19914;-79
2024/02/19 06:25:29;;;;;;;;;;;6.90;99.90;;;;;;5012236;28;19925;-79
2024/02/19 06:27:54;;;;;;;;;;;7.00;99.90;;;;;;4979410;28;19914;-79
2024/02/19 06:30:21;;;;;;;;;;;7.00;99.90;;;;;;4959791;28;19924;-79
2024/02/19 06:32:48;;;;;;;;;;;6.90;99.90;;;;;;4967011;28;20335;-79
2024/02/19 06:35:13;;;;;;;;;;;7.00;99.90;;;;;;4979789;28;19925;-79
2024/02/19 06:37:40;;;;;;;;;;;6.90;99.90;;;;;;4983283;28;19913;-80
2024/02/19 06:40:06;;;;;;;;;;;6.90;99.90;;;;;;4935430;28;19918;-79
2024/02/19 06:42:32;;;;;;;;;;;7.00;99.90;;;;;;4940525;29;20343;-78
2024/02/19 06:44:58;;;;;;;;;;;7.00;99.90;;;;;;4977559;28;19962;-79
2024/02/19 06:47:23;;;;;;;;;;;7.00;99.90;;;;;;4981404;28;19993;-79
2024/02/19 06:49:49;;;;;;;;;;;7.00;99.90;;;;;;4957345;28;19918;-80
2024/02/19 06:52:15;;;;;;;;;;;7.00;99.90;;;;;;4979052;28;19921;-79
2024/02/19 06:54:41;;;;;;;;;;;7.00;99.90;;;;;;4963024;28;19914;-79
2024/02/19 06:57:06;;;;;;;;;;;7.00;99.90;;;;;;4962364;28;19914;-78
2024/02/19 06:59:32;;;;;;;;;;;7.00;99.90;;;;;;4993047;28;19918;-79
2024/02/19 07:01:57;;;;;;;;;;;7.00;99.90;;;;;;4978569;28;19921;-80
2024/02/19 07:04:23;;;;;;;;;;;7.00;99.90;;;;;;4997443;28;19914;-78
2024/02/19 07:06:49;;;;;;;;;;;7.00;99.90;;;;;;4983596;28;20060;-79
2024/02/19 07:09:17;;;;;;;;;;;7.00;99.90;;;;;;4998122;28;19949;-78
2024/02/19 07:11:42;;;;;;;;;;;7.00;99.90;;;;;;4982377;28;19989;-79
2024/02/19 07:14:08;;;;;;;;;;;7.00;99.90;;;;;;4952387;28;20025;-79
2024/02/19 07:16:34;;;;;;;;;;;7.00;99.90;;;;;;4965971;28;19964;-79
2024/02/19 07:18:59;;;;;;;;;;;7.00;99.90;;;;;;4983043;28;20012;-79
2024/02/19 07:21:25;;;;;;;;;;;7.00;99.90;;;;;;4965820;28;19924;-79
2024/02/19 07:23:51;;;;;;;;;;;7.00;99.90;;;;;;4979454;28;19914;-79
2024/02/19 07:26:16;;;;;;;;;;;7.00;99.90;;;;;;4959938;28;19922;-79
2024/02/19 07:28:42;;;;;;;;;;;7.00;99.90;;;;;;4983082;28;20024;-81
2024/02/19 07:31:08;;;;;;;;;;;7.10;99.90;;;;;;4986396;28;19996;-78
2024/02/19 07:33:34;;;;;;;;;;;7.10;99.90;;;;;;4991597;28;19925;-80
2024/02/19 07:36:00;;;;;;;;;;;7.10;99.90;;;;;;4995481;28;19972;-78
2024/02/19 07:38:25;;;;;;;;;;;7.10;99.90;;;;;;4999483;28;20327;-79
2024/02/19 07:40:52;;;;;;;;;;;7.10;99.90;;;;;;4999715;28;20009;-80
2024/02/19 07:43:18;;;;;;;;;;;7.10;99.90;;;;;;4996326;28;19918;-80
2024/02/19 07:45:44;;;;;;;;;;;7.10;99.90;;;;;;4951658;28;19918;-78
2024/02/19 07:48:11;;;;;;;;;;;7.20;99.90;;;;;;4980635;28;19920;-79
2024/02/19 07:50:36;;;;;;;;;;;7.20;99.90;;;;;;4973226;28;20184;-80
2024/02/19 07:53:02;;;;;;;;;;;7.20;99.90;;;;;;4997506;28;19922;-81
2024/02/19 07:55:34;;;;;;;;;;;7.20;99.90;;;;;;4997959;28;19914;-79
2024/02/19 07:58:00;;;;;;;;;;;7.20;99.90;;;;;;4992473;28;19913;-80
2024/02/19 08:00:25;;;;;;;;;;;7.20;99.90;;;;;;4996045;28;20557;-79
2024/02/19 08:02:51;;;;;;;;;;;7.30;99.90;;;;;;4997970;28;19913;-77
2024/02/19 08:05:16;;;;;;;;;;;7.30;99.90;;;;;;4971257;28;19929;-79
2024/02/19 08:07:42;;;;;;;;;;;7.40;99.90;;;;;;4977783;28;19918;-79
2024/02/19 08:10:08;;;;;;;;;;;7.30;99.90;;;;;;4962093;28;19944;-79
2024/02/19 08:12:34;;;;;;;;;;;7.30;99.90;;;;;;4963833;28;20247;-78
2024/02/19 08:15:00;;;;;;;;;;;7.30;99.90;;;;;;4991947;28;19914;-79
2024/02/19 08:17:26;;;;;;;;;;;7.40;99.90;;;;;;4980696;28;19914;-79
2024/02/19 08:19:51;;;;;;;;;;;7.40;99.90;;;;;;4978293;28;19914;-78
2024/02/19 08:22:17;;;;;;;;;;;7.40;99.90;;;;;;4973533;28;19921;-78
2024/02/19 08:24:43;;;;;;;;;;;7.40;99.90;;;;;;4995950;28;20012;-78
2024/02/19 08:27:08;;;;;;;;;;;7.40;99.90;;;;;;4952356;28;20250;-79
2024/02/19 08:29:34;;;;;;;;;;;7.50;99.90;;;;;;4983635;28;19917;-77
2024/02/19 08:32:01;;;;;;;;;;;7.50;99.90;;;;;;4966115;28;19918;-78
2024/02/19 08:34:27;;;;;;;;;;;7.50;99.90;;;;;;4985943;28;20674;-77
2024/02/19 08:36:53;;;;;;;;;;;7.50;99.90;;;;;;4969004;28;19921;-78
2024/02/19 08:39:18;;;;;;;;;;;7.50;99.90;;;;;;4963659;28;19917;-77
2024/02/19 08:41:44;;;;;;;;;;;7.50;99.90;;;;;;4978606;28;19914;-77
2024/02/19 08:44:10;;;;;;;;;;;7.50;99.90;;;;;;4967424;28;19971;-78
2024/02/19 08:46:35;;;;;;;;;;;7.50;99.90;;;;;;4983685;28;19922;-78
2024/02/19 08:49:01;;;;;;;;;;;7.50;99.90;;;;;;4967476;28;19958;-76
2024/02/19 08:51:28;;;;;;;;;;;7.60;99.90;;;;;;4978026;28;21672;-79
2024/02/19 08:53:54;;;;;;;;;;;7.60;99.90;;;;;;4963061;28;19918;-77
2024/02/19 08:56:20;;;;;;;;;;;7.60;99.90;;;;;;4967380;28;19941;-79
2024/02/19 08:58:45;;;;;;;;;;;7.60;99.90;;;;;;4977936;28;19914;-79
2024/02/19 09:01:13;;;;;;;;;;;7.60;99.90;;;;;;4994892;28;19918;-78
2024/02/19 09:03:38;;;;;;;;;;;7.60;99.90;;;;;;4978549;28;19913;-79
2024/02/19 09:06:04;;;;;;;;;;;7.60;99.90;;;;;;4966166;28;19933;-78
2024/02/19 09:08:30;;;;;;;;;;;7.60;99.90;;;;;;4947767;28;19921;-77
2024/02/19 09:10:55;;;;;;;;;;;7.60;99.90;;;;;;4961091;28;19969;-79
2024/02/19 09:13:21;;;;;;;;;;;7.70;99.90;;;;;;4962298;28;19924;-77
2024/02/19 09:15:47;;;;;;;;;;;7.70;99.90;;;;;;4970627;28;20238;-78
2024/02/19 09:18:13;;;;;;;;;;;7.70;99.90;;;;;;4973350;28;19921;-80
2024/02/19 09:20:39;;;;;;;;;;;7.70;99.90;;;;;;4968328;28;19964;-80
2024/02/19 09:23:04;;;;;;;;;;;7.70;99.90;;;;;;4966717;28;19918;-77
2024/02/19 09:25:31;;;;;;;;;;;7.70;99.90;;;;;;4978408;28;20409;-80
2024/02/19 09:27:57;;;;;;;;;;;7.80;99.90;;;;;;4994836;28;19918;-79
2024/02/19 09:30:23;;;;;;;;;;;7.70;99.90;;;;;;4950837;28;19928;-77
2024/02/19 09:32:49;;;;;;;;;;;7.70;99.90;;;;;;4980359;28;19917;-77
2024/02/19 09:35:16;;;;;;;;;;;7.80;99.90;;;;;;4976928;28;19925;-79
2024/02/19 09:37:41;;;;;;;;;;;7.80;99.90;;;;;;4974351;28;19918;-79
2024/02/19 09:40:08;;;;;;;;;;;7.80;99.90;;;;;;4991091;28;19921;-79
2024/02/19 09:42:34;;;;;;;;;;;7.80;99.90;;;;;;4995159;28;20278;-79
2024/02/19 09:45:00;;;;;;;;;;;7.80;99.90;;;;;;4993477;28;19926;-79
2024/02/19 09:47:26;;;;;;;;;;;7.80;99.90;;;;;;4975065;28;19924;-78
2024/02/19 09:49:52;;;;;;;;;;;7.80;99.90;;;;;;4972148;28;19926;-79
2024/02/19 09:52:27;;;;;;;;;;;7.80;99.90;;;;;;4954805;28;19917;-79
2024/02/19 09:54:52;;;;;;;;;;;7.80;99.90;;;;;;4947650;28;20008;-79
2024/02/19 09:57:18;;;;;;;;;;;7.90;99.90;;;;;;4977268;28;20006;-79
2024/02/19 09:59:45;;;;;;;;;;;7.90;99.90;;;;;;4978572;28;19925;-80
2024/02/19 10:02:11;;;;;;;;;;;7.80;99.90;;;;;;4974525;28;19914;-79
2024/02/19 10:04:39;;;;;;;;;;;7.80;99.90;;;;;;4975951;28;19918;-80
2024/02/19 10:07:04;;;;;;;;;;;7.90;99.90;;;;;;4960443;28;19914;-80
2024/02/19 10:09:30;;;;;;;;;;;7.90;99.90;;;;;;4968136;28;20220;-79
2024/02/19 10:11:57;;;;;;;;;;;7.90;99.90;;;;;;4976669;28;19918;-79
2024/02/19 10:14:23;;;;;;;;;;;7.90;99.90;;;;;;4960207;28;19924;-80
2024/02/19 10:16:54;;;;;;;;;;;7.90;99.90;;;;;;4979237;28;19922;-80
2024/02/19 10:19:19;;;;;;;;;;;8.00;99.90;;;;;;4972860;28;19914;-80
2024/02/19 10:21:50;;;;;;;;;;;8.00;99.90;;;;;;4977837;28;20258;-79
2024/02/19 10:24:16;;;;;;;;;;;8.00;99.90;;;;;;4977794;28;20008;-80
2024/02/19 10:26:42;;;;;;;;;;;8.10;99.90;;;;;;4958581;28;19922;-79
2024/02/19 10:29:08;;;;;;;;;;;8.00;99.90;;;;;;4969849;28;20239;-80
2024/02/19 10:31:34;;;;;;;;;;;8.10;99.90;;;;;;4957989;28;19925;-79
2024/02/19 10:34:00;;;;;;;;;;;8.10;99.90;;;;;;4963348;28;20009;-77
2024/02/19 10:36:25;;;;;;;;;;;8.20;99.90;;;;;;4970971;28;20297;-77
2024/02/19 10:38:51;;;;;;;;;;;8.20;99.90;;;;;;4950185;28;19914;-79
2024/02/19 10:41:21;;;;;;;;;;;8.20;99.90;;;;;;4964902;28;19945;-78
2024/02/19 10:43:46;;;;;;;;;;;8.20;99.90;;;;;;4963732;28;19964;-80
2024/02/19 10:46:15;;;;;;;;;;;8.30;99.90;;;;;;4974153;28;19968;-80
2024/02/19 10:48:41;;;;;;;;;;;8.20;99.90;;;;;;4964416;28;19921;-81
2024/02/19 10:51:08;;;;;;;;;;;8.30;99.90;;;;;;4980799;28;20012;-79
2024/02/19 10:53:33;;;;;;;;;;;8.30;99.90;;;;;;4963485;28;20678;-78
2024/02/19 10:56:10;;;;;;;;;;;8.30;99.90;;;;;;4980747;28;19928;-79
2024/02/19 10:58:36;;;;;;;;;;;8.40;99.90;;;;;;4979199;28;20327;-79
2024/02/19 11:01:02;;;;;;;;;;;8.40;99.90;;;;;;4986147;28;19972;-81
2024/02/19 11:03:30;;;;;;;;;;;8.40;99.90;;;;;;4960437;28;19914;-81
2024/02/19 11:05:58;;;;;;;;;;;8.40;99.90;;;;;;4943570;28;19930;-81
2024/02/19 11:08:27;;;;;;;;;;;8.50;99.90;;;;;;4961674;28;19918;-81
2024/02/19 11:10:54;;;;;;;;;;;8.90;99.90;;;;;;4988011;28;20325;-80
2024/02/19 11:13:26;;;;;;;;;;;9.10;99.90;;;;;;4976161;28;19913;-80
2024/02/19 11:15:53;;;;;;;;;;;9.30;99.90;;;;;;4992894;28;20330;-81
2024/02/19 11:18:19;;;;;;;;;;;9.60;99.90;;;;;;4949037;28;19922;-81
2024/02/19 11:20:44;;;;;;;;;;;9.70;99.90;;;;;;4980355;28;19922;-81
2024/02/19 11:23:10;;;;;;;;;;;9.80;99.90;;;;;;4993534;28;20312;-80
2024/02/19 11:25:36;;;;;;;;;;;9.80;99.90;;;;;;4964502;28;19946;-81
2024/02/19 11:28:02;;;;;;;;;;;9.90;99.90;;;;;;5000195;28;19946;-79
2024/02/19 11:30:30;;;;;;;;;;;9.80;99.90;;;;;;4978842;28;19917;-79
2024/02/19 11:33:00;;;;;;;;;;;9.80;99.90;;;;;;4972273;28;19954;-79
2024/02/19 11:35:26;;;;;;;;;;;9.60;99.90;;;;;;4953499;28;19956;-80
2024/02/19 11:37:52;;;;;;;;;;;9.60;99.90;;;;;;4982104;28;19917;-79
2024/02/19 11:40:18;;;;;;;;;;;9.50;99.90;;;;;;4989527;28;19913;-80
2024/02/19 11:42:44;;;;;;;;;;;9.50;99.90;;;;;;4981594;28;19949;-79
2024/02/19 11:45:09;;;;;;;;;;;9.50;99.90;;;;;;4976876;28;19970;-79
2024/02/19 11:47:37;;;;;;;;;;;9.60;99.90;;;;;;4979633;28;19946;-79
2024/02/19 11:50:05;;;;;;;;;;;9.50;99.90;;;;;;4975978;28;19972;-79
2024/02/19 11:52:31;;;;;;;;;;;9.60;99.90;;;;;;4963721;28;19925;-79
2024/02/19 11:54:57;;;;;;;;;;;9.70;99.90;;;;;;4976068;28;19918;-80
2024/02/19 11:57:22;;;;;;;;;;;9.60;99.90;;;;;;4965510;28;20733;-81
2024/02/19 11:59:48;;;;;;;;;;;9.60;99.90;;;;;;4978505;28;19969;-79
2024/02/19 12:02:15;;;;;;;;;;;9.60;99.90;;;;;;4962523;28;19929;-79
2024/02/19 12:04:41;;;;;;;;;;;9.60;99.90;;;;;;4968939;28;19926;-89
2024/02/19 12:22:33;;;;;;;;;;;10.20;99.90;;;;;;5131145;23;19934;-87
2024/02/19 12:27:36;;;;;;;;;;;10.40;99.90;;;;;;5189613;23;19918;-83
2024/02/19 12:59:23;;;;;;;;;;;10.50;99.90;;;;;;5578897;23;20008;-80
2024/02/19 13:01:50;;;;;;;;;;;10.30;99.90;;;;;;4981526;28;19917;-78
2024/02/19 13:04:19;;;;;;;;;;;10.10;99.90;;;;;;4994987;28;19914;-79
2024/02/19 13:06:45;;;;;;;;;;;9.90;99.90;;;;;;4987918;28;19998;-77
2024/02/19 13:09:11;;;;;;;;;;;9.80;99.90;;;;;;4980253;28;19917;-80
2024/02/19 13:11:40;;;;;;;;;;;9.70;99.90;;;;;;4989820;28;19906;-80
2024/02/19 13:14:06;;;;;;;;;;;9.70;99.90;;;;;;4985408;28;19918;-79
2024/02/19 13:16:35;;;;;;;;;;;9.80;99.90;;;;;;4981112;28;20687;-80
2024/02/19 13:19:01;;;;;;;;;;;9.80;99.90;;;;;;4981498;28;19921;-80
2024/02/19 13:21:26;;;;;;;;;;;9.70;99.90;;;;;;4978097;28;19948;-80
2024/02/19 13:23:52;;;;;;;;;;;9.70;99.90;;;;;;4975529;28;19948;-80
2024/02/19 13:26:18;;;;;;;;;;;9.60;99.90;;;;;;4996187;28;19968;-79
2024/02/19 13:28:43;;;;;;;;;;;9.60;99.90;;;;;;4975770;28;19924;-79
2024/02/19 13:31:09;;;;;;;;;;;9.60;99.90;;;;;;4983768;28;19917;-80
2024/02/19 13:33:35;;;;;;;;;;;10.00;99.90;;;;;;4962774;28;19918;-80
2024/02/19 13:36:02;;;;;;;;;;;10.00;99.90;;;;;;4969693;28;19948;-76
2024/02/19 13:38:29;;;;;;;;;;;10.00;99.90;;;;;;4975926;28;20330;-76
2024/02/19 13:41:03;;;;;;;;;;;10.00;99.90;;;;;;4974118;28;19925;-77
2024/02/19 13:43:30;;;;;;;;;;;9.90;99.90;;;;;;4975926;28;20319;-76
2024/02/19 13:45:59;;;;;;;;;;;9.90;99.90;;;;;;4966880;28;19933;-76
2024/02/19 13:48:25;;;;;;;;;;;9.90;99.90;;;;;;4988641;28;21093;-76
2024/02/19 13:50:57;;;;;;;;;;;9.90;99.90;;;;;;4983872;28;19918;-78
2024/02/19 13:53:28;;;;;;;;;;;9.80;99.90;;;;;;4981372;28;19929;-76
2024/02/19 13:55:58;;;;;;;;;;;9.90;99.90;;;;;;4965347;28;19921;-76
2024/02/19 13:58:32;;;;;;;;;;;9.80;99.90;;;;;;4864508;28;2980103;-77
2024/02/19 14:01:04;;;;;;;;;;;9.90;99.90;;;;;;4993632;28;19921;-78
2024/02/19 14:03:30;;;;;;;;;;;9.80;99.90;;;;;;4981431;28;19985;-78
2024/02/19 14:05:58;;;;;;;;;;;9.70;99.90;;;;;;4964096;28;20009;-78
2024/02/19 14:08:27;;;;;;;;;;;9.80;99.90;;;;;;4988478;28;20000;-79
2024/02/19 14:10:57;;;;;;;;;;;9.90;99.90;;;;;;4981665;28;19918;-77
2024/02/19 14:13:25;;;;;;;;;;;9.80;99.90;;;;;;4980686;28;19920;-78
2024/02/19 14:15:51;;;;;;;;;;;9.90;99.90;;;;;;4977101;28;19917;-77
2024/02/19 14:18:19;;;;;;;;;;;9.90;99.90;;;;;;4993262;28;19924;-78
2024/02/19 14:20:46;;;;;;;;;;;9.90;99.90;;;;;;4976950;28;19940;-76
2024/02/19 14:23:12;;;;;;;;;;;9.90;99.90;;;;;;4954173;28;19983;-77
2024/02/19 14:25:38;;;;;;;;;;;9.90;99.90;;;;;;4997272;28;19925;-76
2024/02/19 14:28:08;;;;;;;;;;;9.80;99.90;;;;;;4978079;28;20322;-77
2024/02/19 14:30:34;;;;;;;;;;;9.80;99.90;;;;;;4964773;28;20004;-77
2024/02/19 14:33:00;;;;;;;;;;;9.90;99.90;;;;;;4990407;28;20024;-80
2024/02/19 14:35:26;;;;;;;;;;;9.90;99.90;;;;;;4965039;28;20234;-79
2024/02/19 14:37:51;;;;;;;;;;;9.80;99.90;;;;;;4982992;28;19914;-80
2024/02/19 14:40:17;;;;;;;;;;;9.90;99.90;;;;;;4970714;28;20007;-79
2024/02/19 14:42:52;;;;;;;;;;;9.90;99.90;;;;;;4965445;28;20302;-80
2024/02/19 14:45:18;;;;;;;;;;;9.80;99.90;;;;;;4993650;28;19993;-80
2024/02/19 14:47:47;;;;;;;;;;;9.80;99.90;;;;;;4962766;28;20037;-80
2024/02/19 14:50:13;;;;;;;;;;;9.80;99.90;;;;;;4977930;28;20295;-80
2024/02/19 14:52:39;;;;;;;;;;;9.80;99.90;;;;;;4976379;28;19914;-80
2024/02/19 14:55:11;;;;;;;;;;;9.70;99.90;;;;;;4969619;28;20004;-80
2024/02/19 14:57:40;;;;;;;;;;;9.60;99.90;;;;;;4997021;28;20028;-80
2024/02/19 15:00:10;;;;;;;;;;;9.70;99.90;;;;;;4982710;28;19972;-80
2024/02/19 15:02:39;;;;;;;;;;;9.60;99.90;;;;;;4975835;28;19914;-79
2024/02/19 15:05:07;;;;;;;;;;;9.60;99.90;;;;;;4985215;28;20001;-80
2024/02/19 15:07:33;;;;;;;;;;;9.70;99.90;;;;;;4980299;28;19914;-80
2024/02/19 15:09:59;;;;;;;;;;;9.60;99.90;;;;;;4984118;28;19914;-80